sensor_id;sensor_type;location;lat;lon;timestamp;P1;durP1;ratioP1;P2;durP2;ratioP2
13185;SDS011;6658;53.080;7.428;2022-11-18T00:02:14;6.20;;;5.60;;
13185;SDS011;6658;53.080;7.428;2022-11-18T00:04:39;6.67;;;6.07;;
13185;SDS011;6658;53.080;7.428;2022-11-18T00:07:05;6.30;;;5.70;;
13185;SDS011;6658;53.080;7.428;2022-11-18T00:09:31;10.53;;;7.53;;
13185;SDS011;6658;53.080;7.428;2022-11-18T00:11:57;8.90;;;7.73;;
13185;SDS011;6658;53.080;7.428;2022-11-18T00:14:41;9.10;;;8.20;;
13185;SDS011;6658;53.080;7.428;2022-11-18T00:17:06;8.17;;;6.63;;
13185;SDS011;6658;53.080;7.428;2022-11-18T00:19:33;9.53;;;8.20;;
13185;SDS011;6658;53.080;7.428;2022-11-18T00:22:04;8.13;;;7.33;;
13185;SDS011;6658;53.080;7.428;2022-11-18T00:24:31;9.47;;;8.47;;
13185;SDS011;6658;53.080;7.428;2022-11-18T00:26:57;8.73;;;7.83;;
13185;SDS011;6658;53.080;7.428;2022-11-18T00:29:23;8.77;;;7.87;;
13185;SDS011;6658;53.080;7.428;2022-11-18T00:31:53;7.87;;;7.10;;
13185;SDS011;6658;53.080;7.428;2022-11-18T00:34:19;7.77;;;6.90;;
13185;SDS011;6658;53.080;7.428;2022-11-18T00:36:45;8.20;;;7.23;;
13185;SDS011;6658;53.080;7.428;2022-11-18T00:39:13;8.67;;;7.83;;
13185;SDS011;6658;53.080;7.428;2022-11-18T00:41:39;7.30;;;6.30;;
13185;SDS011;6658;53.080;7.428;2022-11-18T00:44:24;7.83;;;7.13;;
13185;SDS011;6658;53.080;7.428;2022-11-18T00:46:50;8.53;;;7.53;;
13185;SDS011;6658;53.080;7.428;2022-11-18T00:49:16;10.20;;;8.83;;
13185;SDS011;6658;53.080;7.428;2022-11-18T00:51:41;10.37;;;8.80;;
13185;SDS011;6658;53.080;7.428;2022-11-18T00:54:07;11.30;;;10.10;;
13185;SDS011;6658;53.080;7.428;2022-11-18T00:56:33;9.63;;;8.73;;
13185;SDS011;6658;53.080;7.428;2022-11-18T00:58:59;8.60;;;7.20;;
13185;SDS011;6658;53.080;7.428;2022-11-18T01:01:24;8.13;;;6.87;;
13185;SDS011;6658;53.080;7.428;2022-11-18T01:03:50;10.40;;;9.30;;
13185;SDS011;6658;53.080;7.428;2022-11-18T01:06:16;8.63;;;7.73;;
13185;SDS011;6658;53.080;7.428;2022-11-18T01:08:41;8.53;;;7.67;;
13185;SDS011;6658;53.080;7.428;2022-11-18T01:11:07;10.90;;;9.80;;
13185;SDS011;6658;53.080;7.428;2022-11-18T01:13:52;8.67;;;7.20;;
13185;SDS011;6658;53.080;7.428;2022-11-18T01:16:19;8.37;;;7.53;;
13185;SDS011;6658;53.080;7.428;2022-11-18T01:18:46;10.73;;;9.63;;
13185;SDS011;6658;53.080;7.428;2022-11-18T01:21:11;6.67;;;5.97;;
13185;SDS011;6658;53.080;7.428;2022-11-18T01:23:37;10.83;;;9.73;;
13185;SDS011;6658;53.080;7.428;2022-11-18T01:26:03;10.20;;;9.13;;
13185;SDS011;6658;53.080;7.428;2022-11-18T01:28:30;10.57;;;9.00;;
13185;SDS011;6658;53.080;7.428;2022-11-18T01:31:07;10.47;;;7.90;;
13185;SDS011;6658;53.080;7.428;2022-11-18T01:33:35;11.33;;;9.13;;
13185;SDS011;6658;53.080;7.428;2022-11-18T01:36:01;9.23;;;8.30;;
13185;SDS011;6658;53.080;7.428;2022-11-18T01:38:27;10.43;;;8.00;;
13185;SDS011;6658;53.080;7.428;2022-11-18T01:40:53;10.77;;;9.43;;
13185;SDS011;6658;53.080;7.428;2022-11-18T01:43:20;8.93;;;8.03;;
13185;SDS011;6658;53.080;7.428;2022-11-18T01:45:48;11.17;;;9.33;;
13185;SDS011;6658;53.080;7.428;2022-11-18T01:48:27;10.17;;;8.30;;
13185;SDS011;6658;53.080;7.428;2022-11-18T01:50:58;10.60;;;9.33;;
13185;SDS011;6658;53.080;7.428;2022-11-18T01:53:30;10.40;;;9.30;;
13185;SDS011;6658;53.080;7.428;2022-11-18T01:55:58;7.53;;;6.53;;
13185;SDS011;6658;53.080;7.428;2022-11-18T02:01:01;9.83;;;8.50;;
13185;SDS011;6658;53.080;7.428;2022-11-18T02:03:29;10.60;;;9.50;;
13185;SDS011;6658;53.080;7.428;2022-11-18T02:05:54;10.70;;;9.40;;
13185;SDS011;6658;53.080;7.428;2022-11-18T02:08:21;9.37;;;8.40;;
13185;SDS011;6658;53.080;7.428;2022-11-18T02:10:47;9.73;;;8.83;;
13185;SDS011;6658;53.080;7.428;2022-11-18T02:13:13;9.40;;;8.43;;
13185;SDS011;6658;53.080;7.428;2022-11-18T02:29:27;9.27;;;8.37;;
13185;SDS011;6658;53.080;7.428;2022-11-18T02:35:05;11.07;;;9.57;;
13185;SDS011;6658;53.080;7.428;2022-11-18T02:40:15;10.93;;;9.83;;
13185;SDS011;6658;53.080;7.428;2022-11-18T02:42:49;9.97;;;8.97;;
13185;SDS011;6658;53.080;7.428;2022-11-18T02:45:20;10.63;;;9.53;;
13185;SDS011;6658;53.080;7.428;2022-11-18T02:47:46;9.23;;;8.33;;
13185;SDS011;6658;53.080;7.428;2022-11-18T02:50:15;12.37;;;7.40;;
13185;SDS011;6658;53.080;7.428;2022-11-18T02:52:45;10.37;;;9.30;;
13185;SDS011;6658;53.080;7.428;2022-11-18T02:55:15;8.17;;;7.33;;
13185;SDS011;6658;53.080;7.428;2022-11-18T02:57:42;8.90;;;8.00;;
13185;SDS011;6658;53.080;7.428;2022-11-18T03:00:09;9.13;;;8.23;;
13185;SDS011;6658;53.080;7.428;2022-11-18T03:02:43;8.93;;;7.53;;
13185;SDS011;6658;53.080;7.428;2022-11-18T03:05:35;8.43;;;7.60;;
13185;SDS011;6658;53.080;7.428;2022-11-18T03:08:12;9.20;;;8.30;;
13185;SDS011;6658;53.080;7.428;2022-11-18T03:10:51;8.27;;;6.13;;
13185;SDS011;6658;53.080;7.428;2022-11-18T03:13:30;7.13;;;6.47;;
13185;SDS011;6658;53.080;7.428;2022-11-18T03:16:17;6.93;;;5.23;;
13185;SDS011;6658;53.080;7.428;2022-11-18T03:18:52;5.47;;;4.97;;
13185;SDS011;6658;53.080;7.428;2022-11-18T03:21:30;6.17;;;5.57;;
13185;SDS011;6658;53.080;7.428;2022-11-18T03:24:06;7.43;;;6.73;;
13185;SDS011;6658;53.080;7.428;2022-11-18T03:26:38;7.57;;;6.87;;
13185;SDS011;6658;53.080;7.428;2022-11-18T03:29:20;7.90;;;7.10;;
13185;SDS011;6658;53.080;7.428;2022-11-18T03:31:54;7.83;;;7.03;;
13185;SDS011;6658;53.080;7.428;2022-11-18T03:34:36;6.97;;;6.27;;
13185;SDS011;6658;53.080;7.428;2022-11-18T03:37:14;6.60;;;5.90;;
13185;SDS011;6658;53.080;7.428;2022-11-18T03:39:44;6.50;;;5.90;;
13185;SDS011;6658;53.080;7.428;2022-11-18T03:42:17;5.13;;;4.63;;
13185;SDS011;6658;53.080;7.428;2022-11-18T03:44:49;6.77;;;6.13;;
13185;SDS011;6658;53.080;7.428;2022-11-18T03:47:23;6.57;;;5.87;;
13185;SDS011;6658;53.080;7.428;2022-11-18T03:49:54;6.00;;;5.33;;
13185;SDS011;6658;53.080;7.428;2022-11-18T03:52:29;6.93;;;6.33;;
13185;SDS011;6658;53.080;7.428;2022-11-18T03:55:00;6.73;;;6.13;;
13185;SDS011;6658;53.080;7.428;2022-11-18T03:57:31;6.57;;;5.97;;
13185;SDS011;6658;53.080;7.428;2022-11-18T04:00:07;6.00;;;5.40;;
13185;SDS011;6658;53.080;7.428;2022-11-18T04:02:34;6.70;;;6.00;;
13185;SDS011;6658;53.080;7.428;2022-11-18T04:05:02;7.03;;;6.37;;
13185;SDS011;6658;53.080;7.428;2022-11-18T04:10:02;7.27;;;5.83;;
13185;SDS011;6658;53.080;7.428;2022-11-18T04:12:39;7.00;;;6.30;;
13185;SDS011;6658;53.080;7.428;2022-11-18T04:15:09;7.60;;;5.87;;
13185;SDS011;6658;53.080;7.428;2022-11-18T04:17:35;6.50;;;5.90;;
13185;SDS011;6658;53.080;7.428;2022-11-18T04:20:01;10.07;;;6.83;;
13185;SDS011;6658;53.080;7.428;2022-11-18T04:22:27;6.07;;;5.47;;
13185;SDS011;6658;53.080;7.428;2022-11-18T04:24:53;7.07;;;6.17;;
13185;SDS011;6658;53.080;7.428;2022-11-18T04:27:18;8.47;;;6.70;;
13185;SDS011;6658;53.080;7.428;2022-11-18T04:29:44;7.20;;;5.80;;
13185;SDS011;6658;53.080;7.428;2022-11-18T04:32:09;7.83;;;4.60;;
13185;SDS011;6658;53.080;7.428;2022-11-18T04:34:35;7.60;;;5.23;;
13185;SDS011;6658;53.080;7.428;2022-11-18T04:37:01;8.87;;;7.17;;
13185;SDS011;6658;53.080;7.428;2022-11-18T04:39:27;8.10;;;7.30;;
13185;SDS011;6658;53.080;7.428;2022-11-18T04:41:52;9.67;;;7.73;;
13185;SDS011;6658;53.080;7.428;2022-11-18T04:44:27;9.57;;;7.90;;
13185;SDS011;6658;53.080;7.428;2022-11-18T04:46:55;9.20;;;8.13;;
13185;SDS011;6658;53.080;7.428;2022-11-18T04:49:22;7.30;;;5.37;;
13185;SDS011;6658;53.080;7.428;2022-11-18T04:51:49;10.20;;;8.77;;
13185;SDS011;6658;53.080;7.428;2022-11-18T04:54:15;11.10;;;8.57;;
13185;SDS011;6658;53.080;7.428;2022-11-18T04:56:44;9.67;;;8.07;;
13185;SDS011;6658;53.080;7.428;2022-11-18T04:59:11;12.10;;;10.43;;
13185;SDS011;6658;53.080;7.428;2022-11-18T05:01:38;11.57;;;10.37;;
13185;SDS011;6658;53.080;7.428;2022-11-18T05:04:04;12.33;;;9.23;;
13185;SDS011;6658;53.080;7.428;2022-11-18T05:06:30;11.93;;;9.87;;
13185;SDS011;6658;53.080;7.428;2022-11-18T05:08:57;17.57;;;12.50;;
13185;SDS011;6658;53.080;7.428;2022-11-18T05:11:24;11.87;;;9.37;;
13185;SDS011;6658;53.080;7.428;2022-11-18T05:14:10;13.20;;;11.13;;
13185;SDS011;6658;53.080;7.428;2022-11-18T05:16:35;11.90;;;10.70;;
13185;SDS011;6658;53.080;7.428;2022-11-18T05:19:02;13.50;;;11.00;;
13185;SDS011;6658;53.080;7.428;2022-11-18T05:21:28;11.33;;;7.63;;
13185;SDS011;6658;53.080;7.428;2022-11-18T05:23:54;12.60;;;9.90;;
13185;SDS011;6658;53.080;7.428;2022-11-18T05:26:20;15.80;;;11.73;;
13185;SDS011;6658;53.080;7.428;2022-11-18T05:28:45;14.57;;;11.33;;
13185;SDS011;6658;53.080;7.428;2022-11-18T05:31:12;16.17;;;11.43;;
13185;SDS011;6658;53.080;7.428;2022-11-18T05:33:39;15.57;;;11.33;;
13185;SDS011;6658;53.080;7.428;2022-11-18T05:36:07;15.33;;;11.37;;
13185;SDS011;6658;53.080;7.428;2022-11-18T05:38:37;12.97;;;10.83;;
13185;SDS011;6658;53.080;7.428;2022-11-18T05:41:04;15.57;;;10.23;;
13185;SDS011;6658;53.080;7.428;2022-11-18T05:43:30;13.33;;;11.27;;
13185;SDS011;6658;53.080;7.428;2022-11-18T05:45:56;14.50;;;9.83;;
13185;SDS011;6658;53.080;7.428;2022-11-18T05:48:23;11.30;;;9.40;;
13185;SDS011;6658;53.080;7.428;2022-11-18T05:50:49;13.10;;;9.37;;
13185;SDS011;6658;53.080;7.428;2022-11-18T05:53:17;11.07;;;8.00;;
13185;SDS011;6658;53.080;7.428;2022-11-18T05:55:56;11.23;;;9.77;;
13185;SDS011;6658;53.080;7.428;2022-11-18T05:58:23;15.10;;;9.90;;
13185;SDS011;6658;53.080;7.428;2022-11-18T06:00:49;13.77;;;10.03;;
13185;SDS011;6658;53.080;7.428;2022-11-18T06:03:19;12.63;;;9.23;;
13185;SDS011;6658;53.080;7.428;2022-11-18T06:05:48;10.20;;;8.40;;
13185;SDS011;6658;53.080;7.428;2022-11-18T06:08:18;10.07;;;8.03;;
13185;SDS011;6658;53.080;7.428;2022-11-18T06:10:44;8.10;;;7.20;;
13185;SDS011;6658;53.080;7.428;2022-11-18T06:13:14;9.10;;;7.50;;
13185;SDS011;6658;53.080;7.428;2022-11-18T06:15:48;10.63;;;8.53;;
13185;SDS011;6658;53.080;7.428;2022-11-18T06:20:45;11.60;;;8.47;;
13185;SDS011;6658;53.080;7.428;2022-11-18T06:23:11;14.27;;;8.27;;
13185;SDS011;6658;53.080;7.428;2022-11-18T06:25:38;10.73;;;9.20;;
13185;SDS011;6658;53.080;7.428;2022-11-18T06:28:05;12.40;;;9.70;;
13185;SDS011;6658;53.080;7.428;2022-11-18T06:30:33;11.10;;;9.07;;
13185;SDS011;6658;53.080;7.428;2022-11-18T06:32:58;12.83;;;9.53;;
13185;SDS011;6658;53.080;7.428;2022-11-18T06:35:24;13.50;;;9.63;;
13185;SDS011;6658;53.080;7.428;2022-11-18T06:37:49;10.77;;;8.93;;
13185;SDS011;6658;53.080;7.428;2022-11-18T06:40:15;12.67;;;9.70;;
13185;SDS011;6658;53.080;7.428;2022-11-18T06:42:41;9.67;;;8.03;;
13185;SDS011;6658;53.080;7.428;2022-11-18T06:45:25;11.17;;;9.00;;
13185;SDS011;6658;53.080;7.428;2022-11-18T06:47:55;13.23;;;11.07;;
13185;SDS011;6658;53.080;7.428;2022-11-18T06:50:22;13.40;;;11.33;;
13185;SDS011;6658;53.080;7.428;2022-11-18T06:52:48;14.77;;;11.20;;
13185;SDS011;6658;53.080;7.428;2022-11-18T06:55:13;16.47;;;10.50;;
13185;SDS011;6658;53.080;7.428;2022-11-18T06:57:39;13.47;;;10.17;;
13185;SDS011;6658;53.080;7.428;2022-11-18T07:00:05;14.23;;;10.27;;
13185;SDS011;6658;53.080;7.428;2022-11-18T07:02:31;12.20;;;9.60;;
13185;SDS011;6658;53.080;7.428;2022-11-18T07:04:59;7.20;;;5.67;;
13185;SDS011;6658;53.080;7.428;2022-11-18T07:07:25;12.27;;;9.17;;
13185;SDS011;6658;53.080;7.428;2022-11-18T07:09:51;12.07;;;9.87;;
13185;SDS011;6658;53.080;7.428;2022-11-18T07:12:16;12.20;;;9.90;;
13185;SDS011;6658;53.080;7.428;2022-11-18T07:14:42;13.77;;;10.40;;
13185;SDS011;6658;53.080;7.428;2022-11-18T07:17:08;11.60;;;8.70;;
13185;SDS011;6658;53.080;7.428;2022-11-18T07:19:33;9.93;;;8.17;;
13185;SDS011;6658;53.080;7.428;2022-11-18T07:21:59;13.27;;;8.97;;
13185;SDS011;6658;53.080;7.428;2022-11-18T07:24:25;11.60;;;9.07;;
13185;SDS011;6658;53.080;7.428;2022-11-18T07:26:53;13.33;;;8.97;;
13185;SDS011;6658;53.080;7.428;2022-11-18T07:29:19;13.60;;;10.27;;
13185;SDS011;6658;53.080;7.428;2022-11-18T07:31:45;13.30;;;10.97;;
13185;SDS011;6658;53.080;7.428;2022-11-18T07:34:11;12.27;;;9.23;;
13185;SDS011;6658;53.080;7.428;2022-11-18T07:36:37;11.10;;;8.90;;
13185;SDS011;6658;53.080;7.428;2022-11-18T07:39:04;11.60;;;8.37;;
13185;SDS011;6658;53.080;7.428;2022-11-18T07:41:30;12.03;;;9.57;;
13185;SDS011;6658;53.080;7.428;2022-11-18T07:43:58;17.50;;;10.50;;
13185;SDS011;6658;53.080;7.428;2022-11-18T07:46:27;14.37;;;10.10;;
13185;SDS011;6658;53.080;7.428;2022-11-18T07:48:58;12.57;;;9.87;;
13185;SDS011;6658;53.080;7.428;2022-11-18T07:51:26;13.93;;;11.33;;
13185;SDS011;6658;53.080;7.428;2022-11-18T07:53:54;13.43;;;10.83;;
13185;SDS011;6658;53.080;7.428;2022-11-18T07:56:20;13.53;;;10.57;;
13185;SDS011;6658;53.080;7.428;2022-11-18T07:58:50;14.37;;;10.70;;
13185;SDS011;6658;53.080;7.428;2022-11-18T08:01:19;17.20;;;11.27;;
13185;SDS011;6658;53.080;7.428;2022-11-18T08:03:46;16.10;;;11.47;;
13185;SDS011;6658;53.080;7.428;2022-11-18T08:06:14;14.20;;;10.50;;
13185;SDS011;6658;53.080;7.428;2022-11-18T08:08:41;16.57;;;11.53;;
13185;SDS011;6658;53.080;7.428;2022-11-18T08:11:08;15.90;;;10.90;;
13185;SDS011;6658;53.080;7.428;2022-11-18T08:13:36;14.10;;;10.23;;
13185;SDS011;6658;53.080;7.428;2022-11-18T08:16:02;14.33;;;11.17;;
13185;SDS011;6658;53.080;7.428;2022-11-18T08:18:30;15.70;;;11.33;;
13185;SDS011;6658;53.080;7.428;2022-11-18T08:21:02;17.27;;;11.57;;
13185;SDS011;6658;53.080;7.428;2022-11-18T08:23:28;15.90;;;11.90;;
13185;SDS011;6658;53.080;7.428;2022-11-18T08:25:59;18.33;;;12.60;;
13185;SDS011;6658;53.080;7.428;2022-11-18T08:28:29;17.00;;;12.17;;
13185;SDS011;6658;53.080;7.428;2022-11-18T08:30:55;14.90;;;11.27;;
13185;SDS011;6658;53.080;7.428;2022-11-18T08:33:21;13.83;;;9.73;;
13185;SDS011;6658;53.080;7.428;2022-11-18T08:35:47;9.87;;;8.13;;
13185;SDS011;6658;53.080;7.428;2022-11-18T08:38:12;17.43;;;10.23;;
13185;SDS011;6658;53.080;7.428;2022-11-18T08:40:39;14.40;;;10.87;;
13185;SDS011;6658;53.080;7.428;2022-11-18T08:43:09;15.90;;;11.93;;
13185;SDS011;6658;53.080;7.428;2022-11-18T08:45:36;14.87;;;12.40;;
13185;SDS011;6658;53.080;7.428;2022-11-18T08:48:03;15.03;;;11.10;;
13185;SDS011;6658;53.080;7.428;2022-11-18T08:50:29;15.60;;;12.60;;
13185;SDS011;6658;53.080;7.428;2022-11-18T08:52:55;14.60;;;11.17;;
13185;SDS011;6658;53.080;7.428;2022-11-18T08:55:20;15.30;;;12.30;;
13185;SDS011;6658;53.080;7.428;2022-11-18T08:57:46;14.67;;;11.37;;
13185;SDS011;6658;53.080;7.428;2022-11-18T09:00:12;14.33;;;11.33;;
13185;SDS011;6658;53.080;7.428;2022-11-18T09:02:39;16.63;;;12.40;;
13185;SDS011;6658;53.080;7.428;2022-11-18T09:05:05;13.27;;;9.17;;
13185;SDS011;6658;53.080;7.428;2022-11-18T09:07:30;15.53;;;11.00;;
13185;SDS011;6658;53.080;7.428;2022-11-18T09:09:56;13.17;;;10.10;;
13185;SDS011;6658;53.080;7.428;2022-11-18T09:12:22;13.93;;;10.37;;
13185;SDS011;6658;53.080;7.428;2022-11-18T09:14:47;16.90;;;12.03;;
13185;SDS011;6658;53.080;7.428;2022-11-18T09:17:13;14.90;;;10.50;;
13185;SDS011;6658;53.080;7.428;2022-11-18T09:19:39;11.87;;;9.23;;
13185;SDS011;6658;53.080;7.428;2022-11-18T09:22:05;16.50;;;10.43;;
13185;SDS011;6658;53.080;7.428;2022-11-18T09:24:32;14.73;;;10.43;;
13185;SDS011;6658;53.080;7.428;2022-11-18T09:26:58;12.30;;;9.73;;
13185;SDS011;6658;53.080;7.428;2022-11-18T09:29:27;13.93;;;10.30;;
13185;SDS011;6658;53.080;7.428;2022-11-18T09:31:53;13.60;;;11.20;;
13185;SDS011;6658;53.080;7.428;2022-11-18T09:34:19;15.30;;;11.87;;
13185;SDS011;6658;53.080;7.428;2022-11-18T09:36:46;12.17;;;9.83;;
13185;SDS011;6658;53.080;7.428;2022-11-18T09:39:12;13.73;;;10.77;;
13185;SDS011;6658;53.080;7.428;2022-11-18T09:49:43;11.80;;;9.67;;
13185;SDS011;6658;53.080;7.428;2022-11-18T09:54:41;9.63;;;6.80;;
13185;SDS011;6658;53.080;7.428;2022-11-18T09:57:13;13.17;;;9.53;;
13185;SDS011;6658;53.080;7.428;2022-11-18T09:59:41;11.87;;;8.00;;
13185;SDS011;6658;53.080;7.428;2022-11-18T10:04:53;8.50;;;6.27;;
13185;SDS011;6658;53.080;7.428;2022-11-18T10:07:43;11.10;;;8.63;;
13185;SDS011;6658;53.080;7.428;2022-11-18T10:10:13;9.00;;;6.90;;
13185;SDS011;6658;53.080;7.428;2022-11-18T10:12:45;11.40;;;9.50;;
13185;SDS011;6658;53.080;7.428;2022-11-18T10:23:50;11.03;;;8.37;;
13185;SDS011;6658;53.080;7.428;2022-11-18T10:26:38;11.57;;;8.97;;
13185;SDS011;6658;53.080;7.428;2022-11-18T10:29:05;13.60;;;9.63;;
13185;SDS011;6658;53.080;7.428;2022-11-18T10:32:08;12.93;;;8.93;;
13185;SDS011;6658;53.080;7.428;2022-11-18T10:34:43;10.20;;;8.13;;
13185;SDS011;6658;53.080;7.428;2022-11-18T10:37:23;12.47;;;8.37;;
13185;SDS011;6658;53.080;7.428;2022-11-18T10:39:57;13.47;;;8.67;;
13185;SDS011;6658;53.080;7.428;2022-11-18T10:42:29;7.77;;;6.33;;
13185;SDS011;6658;53.080;7.428;2022-11-18T10:47:55;10.77;;;8.53;;
13185;SDS011;6658;53.080;7.428;2022-11-18T10:50:42;12.57;;;8.20;;
13185;SDS011;6658;53.080;7.428;2022-11-18T10:56:07;13.00;;;9.17;;
13185;SDS011;6658;53.080;7.428;2022-11-18T10:58:40;16.13;;;9.77;;
13185;SDS011;6658;53.080;7.428;2022-11-18T11:03:58;9.23;;;7.13;;
13185;SDS011;6658;53.080;7.428;2022-11-18T11:06:30;13.30;;;9.17;;
13185;SDS011;6658;53.080;7.428;2022-11-18T11:09:05;12.47;;;9.47;;
13185;SDS011;6658;53.080;7.428;2022-11-18T11:14:49;13.50;;;9.70;;
13185;SDS011;6658;53.080;7.428;2022-11-18T11:17:27;14.63;;;11.23;;
13185;SDS011;6658;53.080;7.428;2022-11-18T11:22:35;14.10;;;9.60;;
13185;SDS011;6658;53.080;7.428;2022-11-18T11:25:00;14.37;;;10.80;;
13185;SDS011;6658;53.080;7.428;2022-11-18T11:27:41;15.57;;;10.43;;
13185;SDS011;6658;53.080;7.428;2022-11-18T11:30:28;11.40;;;7.83;;
13185;SDS011;6658;53.080;7.428;2022-11-18T11:41:01;14.57;;;10.87;;
13185;SDS011;6658;53.080;7.428;2022-11-18T11:46:36;15.97;;;9.83;;
13185;SDS011;6658;53.080;7.428;2022-11-18T11:52:01;15.70;;;10.20;;
13185;SDS011;6658;53.080;7.428;2022-11-18T11:57:56;13.67;;;10.40;;
13185;SDS011;6658;53.080;7.428;2022-11-18T12:00:34;9.80;;;6.40;;
13185;SDS011;6658;53.080;7.428;2022-11-18T12:03:32;9.50;;;7.47;;
13185;SDS011;6658;53.080;7.428;2022-11-18T12:06:11;14.07;;;10.10;;
13185;SDS011;6658;53.080;7.428;2022-11-18T12:08:38;12.37;;;8.77;;
13185;SDS011;6658;53.080;7.428;2022-11-18T12:11:32;16.07;;;10.03;;
13185;SDS011;6658;53.080;7.428;2022-11-18T12:14:44;15.07;;;11.07;;
13185;SDS011;6658;53.080;7.428;2022-11-18T12:17:14;14.23;;;10.27;;
13185;SDS011;6658;53.080;7.428;2022-11-18T12:19:47;18.77;;;11.30;;
13185;SDS011;6658;53.080;7.428;2022-11-18T12:22:13;16.27;;;11.53;;
13185;SDS011;6658;53.080;7.428;2022-11-18T12:24:39;13.20;;;10.00;;
13185;SDS011;6658;53.080;7.428;2022-11-18T12:32:15;14.53;;;10.93;;
13185;SDS011;6658;53.080;7.428;2022-11-18T12:34:54;12.67;;;9.67;;
13185;SDS011;6658;53.080;7.428;2022-11-18T12:48:02;14.10;;;8.80;;
13185;SDS011;6658;53.080;7.428;2022-11-18T12:50:46;16.00;;;12.33;;
13185;SDS011;6658;53.080;7.428;2022-11-18T12:53:27;12.53;;;9.13;;
13185;SDS011;6658;53.080;7.428;2022-11-18T12:58:47;15.70;;;11.43;;
13185;SDS011;6658;53.080;7.428;2022-11-18T13:01:38;15.83;;;11.13;;
13185;SDS011;6658;53.080;7.428;2022-11-18T13:04:05;14.10;;;10.13;;
13185;SDS011;6658;53.080;7.428;2022-11-18T13:06:33;13.50;;;10.33;;
13185;SDS011;6658;53.080;7.428;2022-11-18T13:09:02;12.70;;;8.87;;
13185;SDS011;6658;53.080;7.428;2022-11-18T13:11:39;13.67;;;10.13;;
13185;SDS011;6658;53.080;7.428;2022-11-18T13:14:19;15.47;;;10.50;;
13185;SDS011;6658;53.080;7.428;2022-11-18T13:22:52;19.67;;;12.10;;
13185;SDS011;6658;53.080;7.428;2022-11-18T13:25:38;16.90;;;11.93;;
13185;SDS011;6658;53.080;7.428;2022-11-18T13:30:57;17.47;;;12.87;;
13185;SDS011;6658;53.080;7.428;2022-11-18T13:33:32;16.67;;;13.37;;
13185;SDS011;6658;53.080;7.428;2022-11-18T13:36:00;16.57;;;12.10;;
13185;SDS011;6658;53.080;7.428;2022-11-18T13:38:26;14.43;;;9.57;;
13185;SDS011;6658;53.080;7.428;2022-11-18T13:40:52;17.10;;;12.53;;
13185;SDS011;6658;53.080;7.428;2022-11-18T13:43:35;18.17;;;12.63;;
13185;SDS011;6658;53.080;7.428;2022-11-18T13:46:05;15.10;;;12.10;;
13185;SDS011;6658;53.080;7.428;2022-11-18T13:48:36;15.40;;;10.57;;
13185;SDS011;6658;53.080;7.428;2022-11-18T13:51:10;18.90;;;12.57;;
13185;SDS011;6658;53.080;7.428;2022-11-18T13:53:37;19.47;;;12.53;;
13185;SDS011;6658;53.080;7.428;2022-11-18T13:58:32;18.00;;;12.53;;
13185;SDS011;6658;53.080;7.428;2022-11-18T14:01:05;13.23;;;8.77;;
13185;SDS011;6658;53.080;7.428;2022-11-18T14:06:10;12.80;;;9.37;;
13185;SDS011;6658;53.080;7.428;2022-11-18T14:08:36;17.93;;;11.57;;
13185;SDS011;6658;53.080;7.428;2022-11-18T14:11:03;16.27;;;11.07;;
13185;SDS011;6658;53.080;7.428;2022-11-18T14:13:32;13.53;;;10.07;;
13185;SDS011;6658;53.080;7.428;2022-11-18T14:18:44;11.73;;;9.00;;
13185;SDS011;6658;53.080;7.428;2022-11-18T14:21:12;15.20;;;10.57;;
13185;SDS011;6658;53.080;7.428;2022-11-18T14:23:40;13.33;;;10.73;;
13185;SDS011;6658;53.080;7.428;2022-11-18T14:26:08;13.80;;;10.47;;
13185;SDS011;6658;53.080;7.428;2022-11-18T14:28:37;12.13;;;9.20;;
13185;SDS011;6658;53.080;7.428;2022-11-18T14:36:47;12.63;;;9.60;;
13185;SDS011;6658;53.080;7.428;2022-11-18T14:41:48;7.87;;;6.33;;
13185;SDS011;6658;53.080;7.428;2022-11-18T14:44:15;12.23;;;8.13;;
13185;SDS011;6658;53.080;7.428;2022-11-18T14:46:43;11.07;;;7.77;;
13185;SDS011;6658;53.080;7.428;2022-11-18T14:49:13;11.90;;;9.33;;
13185;SDS011;6658;53.080;7.428;2022-11-18T14:51:42;12.37;;;9.90;;
13185;SDS011;6658;53.080;7.428;2022-11-18T14:54:12;14.00;;;10.67;;
13185;SDS011;6658;53.080;7.428;2022-11-18T14:56:39;12.27;;;9.10;;
13185;SDS011;6658;53.080;7.428;2022-11-18T14:59:05;7.90;;;6.00;;
13185;SDS011;6658;53.080;7.428;2022-11-18T15:01:31;11.93;;;8.70;;
13185;SDS011;6658;53.080;7.428;2022-11-18T15:03:56;11.10;;;8.60;;
13185;SDS011;6658;53.080;7.428;2022-11-18T15:06:22;10.57;;;8.50;;
13185;SDS011;6658;53.080;7.428;2022-11-18T15:08:49;10.40;;;8.47;;
13185;SDS011;6658;53.080;7.428;2022-11-18T15:11:16;9.00;;;8.10;;
13185;SDS011;6658;53.080;7.428;2022-11-18T15:13:45;8.07;;;6.33;;
13185;SDS011;6658;53.080;7.428;2022-11-18T15:16:18;11.17;;;8.17;;
13185;SDS011;6658;53.080;7.428;2022-11-18T15:18:52;10.93;;;9.60;;
13185;SDS011;6658;53.080;7.428;2022-11-18T15:21:20;11.43;;;9.30;;
13185;SDS011;6658;53.080;7.428;2022-11-18T15:23:46;10.37;;;8.07;;
13185;SDS011;6658;53.080;7.428;2022-11-18T15:28:44;8.37;;;7.37;;
13185;SDS011;6658;53.080;7.428;2022-11-18T15:31:11;11.30;;;9.73;;
13185;SDS011;6658;53.080;7.428;2022-11-18T15:33:37;14.40;;;11.23;;
13185;SDS011;6658;53.080;7.428;2022-11-18T15:36:03;12.67;;;11.27;;
13185;SDS011;6658;53.080;7.428;2022-11-18T15:38:28;10.53;;;9.43;;
13185;SDS011;6658;53.080;7.428;2022-11-18T15:40:55;11.37;;;10.17;;
13185;SDS011;6658;53.080;7.428;2022-11-18T15:43:21;13.63;;;12.07;;
13185;SDS011;6658;53.080;7.428;2022-11-18T15:45:47;12.07;;;10.10;;
13185;SDS011;6658;53.080;7.428;2022-11-18T15:48:12;13.97;;;11.63;;
13185;SDS011;6658;53.080;7.428;2022-11-18T15:50:38;12.43;;;10.27;;
13185;SDS011;6658;53.080;7.428;2022-11-18T15:53:04;13.33;;;10.73;;
13185;SDS011;6658;53.080;7.428;2022-11-18T15:55:29;16.93;;;13.13;;
13185;SDS011;6658;53.080;7.428;2022-11-18T15:57:55;12.07;;;10.73;;
13185;SDS011;6658;53.080;7.428;2022-11-18T16:00:21;13.27;;;11.57;;
13185;SDS011;6658;53.080;7.428;2022-11-18T16:02:47;14.50;;;12.20;;
13185;SDS011;6658;53.080;7.428;2022-11-18T16:05:12;15.07;;;12.90;;
13185;SDS011;6658;53.080;7.428;2022-11-18T16:07:38;13.97;;;11.20;;
13185;SDS011;6658;53.080;7.428;2022-11-18T16:10:04;15.27;;;12.53;;
13185;SDS011;6658;53.080;7.428;2022-11-18T16:12:49;15.10;;;12.10;;
13185;SDS011;6658;53.080;7.428;2022-11-18T16:15:15;14.67;;;13.07;;
13185;SDS011;6658;53.080;7.428;2022-11-18T16:17:59;8.33;;;7.10;;
13185;SDS011;6658;53.080;7.428;2022-11-18T16:20:26;16.13;;;13.37;;
13185;SDS011;6658;53.080;7.428;2022-11-18T16:22:52;13.67;;;11.87;;
13185;SDS011;6658;53.080;7.428;2022-11-18T16:25:20;12.17;;;9.13;;
13185;SDS011;6658;53.080;7.428;2022-11-18T16:27:46;16.33;;;13.50;;
13185;SDS011;6658;53.080;7.428;2022-11-18T16:30:12;13.37;;;10.73;;
13185;SDS011;6658;53.080;7.428;2022-11-18T16:32:56;16.97;;;13.93;;
13185;SDS011;6658;53.080;7.428;2022-11-18T16:35:22;17.77;;;14.47;;
13185;SDS011;6658;53.080;7.428;2022-11-18T16:37:47;16.43;;;13.63;;
13185;SDS011;6658;53.080;7.428;2022-11-18T16:40:13;12.63;;;10.50;;
13185;SDS011;6658;53.080;7.428;2022-11-18T16:42:39;11.17;;;9.93;;
13185;SDS011;6658;53.080;7.428;2022-11-18T16:45:05;9.17;;;7.93;;
13185;SDS011;6658;53.080;7.428;2022-11-18T16:47:31;10.60;;;8.53;;
13185;SDS011;6658;53.080;7.428;2022-11-18T16:49:56;10.03;;;8.70;;
13185;SDS011;6658;53.080;7.428;2022-11-18T16:52:22;14.07;;;12.60;;
13185;SDS011;6658;53.080;7.428;2022-11-18T16:54:47;13.03;;;9.47;;
13185;SDS011;6658;53.080;7.428;2022-11-18T16:57:13;14.13;;;12.53;;
13185;SDS011;6658;53.080;7.428;2022-11-18T16:59:39;16.53;;;13.40;;
13185;SDS011;6658;53.080;7.428;2022-11-18T17:02:05;10.07;;;7.53;;
13185;SDS011;6658;53.080;7.428;2022-11-18T17:04:31;16.80;;;13.60;;
13185;SDS011;6658;53.080;7.428;2022-11-18T17:06:59;13.10;;;10.37;;